sensor_id;sensor_type;location;lat;lon;timestamp;pressure;altitude;pressure_sealevel;temperature;humidity
19884;BME280;10104;50.732;10.174;2023-03-21T00:01:42;98054.78;;;9.45;74.30
19884;BME280;10104;50.732;10.174;2023-03-21T00:04:04;98063.66;;;9.52;73.98
19884;BME280;10104;50.732;10.174;2023-03-21T00:06:25;98058.19;;;9.53;72.73
19884;BME280;10104;50.732;10.174;2023-03-21T00:08:47;98054.03;;;9.59;73.56
19884;BME280;10104;50.732;10.174;2023-03-21T00:11:10;98049.84;;;9.64;72.82
19884;BME280;10104;50.732;10.174;2023-03-21T00:13:33;98042.78;;;9.80;72.57
19884;BME280;10104;50.732;10.174;2023-03-21T00:18:35;98044.22;;;9.67;73.88
19884;BME280;10104;50.732;10.174;2023-03-21T00:21:04;98049.66;;;9.66;73.85
19884;BME280;10104;50.732;10.174;2023-03-21T00:23:46;98034.38;;;9.76;73.81
19884;BME280;10104;50.732;10.174;2023-03-21T00:26:08;98040.25;;;9.86;73.33
19884;BME280;10104;50.732;10.174;2023-03-21T00:28:30;98032.44;;;9.70;73.92
19884;BME280;10104;50.732;10.174;2023-03-21T00:30:59;98038.59;;;9.48;75.25
19884;BME280;10104;50.732;10.174;2023-03-21T00:33:20;98030.22;;;9.59;75.25
19884;BME280;10104;50.732;10.174;2023-03-21T00:35:43;98034.84;;;9.80;73.45
19884;BME280;10104;50.732;10.174;2023-03-21T00:38:25;98031.75;;;9.53;74.39
19884;BME280;10104;50.732;10.174;2023-03-21T00:40:47;98028.44;;;9.74;74.20
19884;BME280;10104;50.732;10.174;2023-03-21T00:43:10;98029.44;;;9.73;74.50
19884;BME280;10104;50.732;10.174;2023-03-21T00:45:38;98025.38;;;9.85;73.77
19884;BME280;10104;50.732;10.174;2023-03-21T00:48:00;98026.28;;;9.92;73.49
19884;BME280;10104;50.732;10.174;2023-03-21T00:50:22;98027.00;;;10.01;73.41
19884;BME280;10104;50.732;10.174;2023-03-21T00:52:43;98024.03;;;10.19;72.71
19884;BME280;10104;50.732;10.174;2023-03-21T00:55:05;98024.31;;;10.38;71.68
19884;BME280;10104;50.732;10.174;2023-03-21T00:57:27;98016.66;;;10.43;71.20
19884;BME280;10104;50.732;10.174;2023-03-21T00:59:59;98017.56;;;10.50;70.93
19884;BME280;10104;50.732;10.174;2023-03-21T01:02:21;98023.59;;;10.59;70.51
19884;BME280;10104;50.732;10.174;2023-03-21T01:04:43;98012.69;;;10.69;69.59
19884;BME280;10104;50.732;10.174;2023-03-21T01:07:05;98011.13;;;10.74;69.14
19884;BME280;10104;50.732;10.174;2023-03-21T01:09:26;98009.03;;;10.84;68.28
19884;BME280;10104;50.732;10.174;2023-03-21T01:11:48;98002.78;;;10.92;67.44
19884;BME280;10104;50.732;10.174;2023-03-21T01:14:12;98004.34;;;10.86;68.31
19884;BME280;10104;50.732;10.174;2023-03-21T01:16:43;98002.91;;;10.84;68.71
19884;BME280;10104;50.732;10.174;2023-03-21T01:19:06;98002.16;;;10.75;68.58
19884;BME280;10104;50.732;10.174;2023-03-21T01:21:38;97999.25;;;10.85;68.52
19884;BME280;10104;50.732;10.174;2023-03-21T01:24:00;98003.66;;;10.99;67.41
19884;BME280;10104;50.732;10.174;2023-03-21T01:26:22;98005.97;;;10.87;68.01
19884;BME280;10104;50.732;10.174;2023-03-21T01:28:44;98004.22;;;10.73;68.28
19884;BME280;10104;50.732;10.174;2023-03-21T01:31:06;98006.13;;;10.79;68.71
19884;BME280;10104;50.732;10.174;2023-03-21T01:33:29;98005.16;;;10.87;68.52
19884;BME280;10104;50.732;10.174;2023-03-21T01:35:51;97995.03;;;10.90;68.48
19884;BME280;10104;50.732;10.174;2023-03-21T01:38:30;97999.69;;;10.88;68.01
19884;BME280;10104;50.732;10.174;2023-03-21T01:40:52;97995.19;;;10.89;68.09
19884;BME280;10104;50.732;10.174;2023-03-21T01:43:21;97991.44;;;10.98;67.81
19884;BME280;10104;50.732;10.174;2023-03-21T01:48:27;97993.28;;;10.98;67.42
19884;BME280;10104;50.732;10.174;2023-03-21T01:50:50;97985.13;;;10.99;67.75
19884;BME280;10104;50.732;10.174;2023-03-21T01:53:13;97990.28;;;11.07;67.70
19884;BME280;10104;50.732;10.174;2023-03-21T01:55:36;97984.81;;;11.09;67.37
19884;BME280;10104;50.732;10.174;2023-03-21T01:57:59;97979.41;;;11.17;66.94
19884;BME280;10104;50.732;10.174;2023-03-21T02:00:27;97982.06;;;11.17;66.85
19884;BME280;10104;50.732;10.174;2023-03-21T02:02:50;97981.28;;;11.23;66.43
19884;BME280;10104;50.732;10.174;2023-03-21T02:05:32;97980.94;;;11.11;66.66
19884;BME280;10104;50.732;10.174;2023-03-21T02:07:58;97979.75;;;11.14;66.27
19884;BME280;10104;50.732;10.174;2023-03-21T02:10:21;97971.63;;;10.94;66.93
19884;BME280;10104;50.732;10.174;2023-03-21T02:12:42;97977.06;;;10.86;67.76
19884;BME280;10104;50.732;10.174;2023-03-21T02:15:05;97966.41;;;10.65;69.04
19884;BME280;10104;50.732;10.174;2023-03-21T02:17:42;97969.28;;;10.48;69.82
19884;BME280;10104;50.732;10.174;2023-03-21T02:25:40;97956.63;;;10.29;71.99
19884;BME280;10104;50.732;10.174;2023-03-21T02:39:01;97954.16;;;9.98;73.50
19884;BME280;10104;50.732;10.174;2023-03-21T02:44:40;97938.63;;;10.10;72.33
19884;BME280;10104;50.732;10.174;2023-03-21T02:47:08;97939.44;;;9.96;73.32
19884;BME280;10104;50.732;10.174;2023-03-21T02:49:41;97947.56;;;9.94;73.87
19884;BME280;10104;50.732;10.174;2023-03-21T02:52:06;97951.66;;;9.82;74.85
19884;BME280;10104;50.732;10.174;2023-03-21T02:54:42;97953.50;;;9.82;75.16
19884;BME280;10104;50.732;10.174;2023-03-21T02:57:08;97950.41;;;9.78;75.46
19884;BME280;10104;50.732;10.174;2023-03-21T02:59:30;97959.91;;;9.87;75.05
19884;BME280;10104;50.732;10.174;2023-03-21T03:01:58;97949.84;;;9.97;74.02
19884;BME280;10104;50.732;10.174;2023-03-21T03:04:22;97935.53;;;10.06;73.15
19884;BME280;10104;50.732;10.174;2023-03-21T03:09:53;97927.16;;;10.18;72.01
19884;BME280;10104;50.732;10.174;2023-03-21T03:15:15;97924.66;;;10.45;70.77
19884;BME280;10104;50.732;10.174;2023-03-21T03:17:53;97923.31;;;10.56;70.07
19884;BME280;10104;50.732;10.174;2023-03-21T03:20:24;97928.28;;;10.44;69.96
19884;BME280;10104;50.732;10.174;2023-03-21T03:22:57;97923.00;;;10.44;70.55
19884;BME280;10104;50.732;10.174;2023-03-21T03:25:29;97930.13;;;10.44;70.43
19884;BME280;10104;50.732;10.174;2023-03-21T03:28:04;97922.72;;;10.54;70.59
19884;BME280;10104;50.732;10.174;2023-03-21T03:30:26;97922.41;;;10.64;70.25
19884;BME280;10104;50.732;10.174;2023-03-21T03:33:02;97923.47;;;10.69;70.04
19884;BME280;10104;50.732;10.174;2023-03-21T03:35:26;97924.53;;;10.75;70.18
19884;BME280;10104;50.732;10.174;2023-03-21T03:37:53;97930.91;;;10.80;69.24
19884;BME280;10104;50.732;10.174;2023-03-21T03:40:23;97926.84;;;10.78;69.20
19884;BME280;10104;50.732;10.174;2023-03-21T03:42:52;97922.59;;;10.83;69.37
19884;BME280;10104;50.732;10.174;2023-03-21T03:45:15;97915.47;;;10.84;69.45
19884;BME280;10104;50.732;10.174;2023-03-21T03:47:49;97921.28;;;10.94;69.24
19884;BME280;10104;50.732;10.174;2023-03-21T03:53:00;97912.25;;;11.10;67.69
19884;BME280;10104;50.732;10.174;2023-03-21T03:55:36;97915.63;;;10.97;68.28
19884;BME280;10104;50.732;10.174;2023-03-21T03:58:00;97918.88;;;10.99;68.60
19884;BME280;10104;50.732;10.174;2023-03-21T04:00:25;97915.84;;;11.02;68.67
19884;BME280;10104;50.732;10.174;2023-03-21T04:02:47;97916.50;;;11.04;68.27
19884;BME280;10104;50.732;10.174;2023-03-21T04:05:09;97914.97;;;10.95;68.64
19884;BME280;10104;50.732;10.174;2023-03-21T04:07:30;97916.75;;;11.09;67.89
19884;BME280;10104;50.732;10.174;2023-03-21T04:09:52;97912.69;;;11.13;67.46
19884;BME280;10104;50.732;10.174;2023-03-21T04:12:13;97917.16;;;11.13;67.66
19884;BME280;10104;50.732;10.174;2023-03-21T04:14:35;97921.03;;;11.10;67.54
19884;BME280;10104;50.732;10.174;2023-03-21T04:17:05;97919.00;;;11.12;67.53
19884;BME280;10104;50.732;10.174;2023-03-21T04:19:27;97919.91;;;10.98;67.23
19884;BME280;10104;50.732;10.174;2023-03-21T04:21:48;97920.91;;;10.97;67.66
19884;BME280;10104;50.732;10.174;2023-03-21T04:24:10;97914.72;;;10.90;68.17
19884;BME280;10104;50.732;10.174;2023-03-21T04:26:32;97914.16;;;10.94;67.71
19884;BME280;10104;50.732;10.174;2023-03-21T04:28:55;97923.59;;;10.82;68.51
19884;BME280;10104;50.732;10.174;2023-03-21T04:31:17;97917.50;;;10.82;68.50
19884;BME280;10104;50.732;10.174;2023-03-21T04:33:46;97910.06;;;10.92;67.62
19884;BME280;10104;50.732;10.174;2023-03-21T04:36:09;97911.22;;;10.68;68.85
19884;BME280;10104;50.732;10.174;2023-03-21T04:38:38;97914.09;;;10.67;69.11
19884;BME280;10104;50.732;10.174;2023-03-21T04:41:02;97916.00;;;10.73;69.33
19884;BME280;10104;50.732;10.174;2023-03-21T04:43:23;97914.84;;;10.82;68.75
19884;BME280;10104;50.732;10.174;2023-03-21T04:45:45;97919.47;;;10.73;68.82
19884;BME280;10104;50.732;10.174;2023-03-21T04:48:07;97911.38;;;10.60;69.87
19884;BME280;10104;50.732;10.174;2023-03-21T04:50:28;97913.03;;;10.61;69.49
19884;BME280;10104;50.732;10.174;2023-03-21T04:52:50;97920.69;;;10.56;69.84
19884;BME280;10104;50.732;10.174;2023-03-21T04:55:11;97920.41;;;10.66;69.25
19884;BME280;10104;50.732;10.174;2023-03-21T04:57:33;97907.72;;;10.82;68.31
19884;BME280;10104;50.732;10.174;2023-03-21T04:59:54;97907.03;;;10.74;69.05
19884;BME280;10104;50.732;10.174;2023-03-21T05:02:16;97919.72;;;10.78;68.45
19884;BME280;10104;50.732;10.174;2023-03-21T05:04:38;97911.44;;;10.88;67.79
19884;BME280;10104;50.732;10.174;2023-03-21T05:07:00;97915.59;;;10.76;68.53
19884;BME280;10104;50.732;10.174;2023-03-21T05:09:21;97917.50;;;10.82;68.45
19884;BME280;10104;50.732;10.174;2023-03-21T05:11:43;97908.34;;;10.84;68.18
19884;BME280;10104;50.732;10.174;2023-03-21T05:14:06;97910.94;;;10.78;68.54
19884;BME280;10104;50.732;10.174;2023-03-21T05:16:28;97913.13;;;10.53;69.35
19884;BME280;10104;50.732;10.174;2023-03-21T05:18:52;97904.19;;;10.54;69.57
19884;BME280;10104;50.732;10.174;2023-03-21T05:21:15;97911.56;;;10.59;69.78
19884;BME280;10104;50.732;10.174;2023-03-21T05:23:38;97915.66;;;10.61;69.85
19884;BME280;10104;50.732;10.174;2023-03-21T05:25:59;97921.44;;;10.50;70.24
19884;BME280;10104;50.732;10.174;2023-03-21T05:28:21;97919.69;;;10.57;69.98
19884;BME280;10104;50.732;10.174;2023-03-21T05:30:44;97914.84;;;10.61;70.02
19884;BME280;10104;50.732;10.174;2023-03-21T05:33:06;97917.50;;;10.61;69.82
19884;BME280;10104;50.732;10.174;2023-03-21T05:35:27;97918.09;;;10.63;69.83
19884;BME280;10104;50.732;10.174;2023-03-21T05:37:49;97917.34;;;10.69;69.90
19884;BME280;10104;50.732;10.174;2023-03-21T05:40:11;97917.06;;;10.78;69.89
19884;BME280;10104;50.732;10.174;2023-03-21T05:42:33;97917.75;;;10.87;69.48
19884;BME280;10104;50.732;10.174;2023-03-21T05:44:54;97910.50;;;10.95;69.33
19884;BME280;10104;50.732;10.174;2023-03-21T05:47:16;97913.16;;;10.95;69.32
19884;BME280;10104;50.732;10.174;2023-03-21T05:49:38;97911.19;;;11.04;68.79
19884;BME280;10104;50.732;10.174;2023-03-21T05:52:00;97908.97;;;11.08;68.67
19884;BME280;10104;50.732;10.174;2023-03-21T05:54:21;97907.38;;;11.13;68.69
19884;BME280;10104;50.732;10.174;2023-03-21T05:56:43;97914.63;;;11.26;68.26
19884;BME280;10104;50.732;10.174;2023-03-21T05:59:04;97911.28;;;11.17;68.60
19884;BME280;10104;50.732;10.174;2023-03-21T06:01:26;97906.50;;;11.27;68.10
19884;BME280;10104;50.732;10.174;2023-03-21T06:03:48;97907.50;;;11.26;68.13
19884;BME280;10104;50.732;10.174;2023-03-21T06:06:09;97907.56;;;11.33;67.83
19884;BME280;10104;50.732;10.174;2023-03-21T06:08:31;97909.03;;;11.42;67.63
19884;BME280;10104;50.732;10.174;2023-03-21T06:10:52;97911.25;;;11.39;67.50
19884;BME280;10104;50.732;10.174;2023-03-21T06:13:15;97909.72;;;11.51;67.41
19884;BME280;10104;50.732;10.174;2023-03-21T06:15:37;97901.63;;;11.59;67.31
19884;BME280;10104;50.732;10.174;2023-03-21T06:17:59;97908.41;;;11.68;66.93
19884;BME280;10104;50.732;10.174;2023-03-21T06:20:21;97918.13;;;11.82;66.39
19884;BME280;10104;50.732;10.174;2023-03-21T06:22:42;97912.63;;;11.84;67.40
19884;BME280;10104;50.732;10.174;2023-03-21T06:25:05;97912.06;;;11.95;67.46
19884;BME280;10104;50.732;10.174;2023-03-21T06:27:27;97909.03;;;12.04;67.06
19884;BME280;10104;50.732;10.174;2023-03-21T06:29:49;97914.00;;;12.14;66.68
19884;BME280;10104;50.732;10.174;2023-03-21T06:32:11;97904.88;;;12.30;65.52
19884;BME280;10104;50.732;10.174;2023-03-21T06:34:33;97901.63;;;12.28;66.01
19884;BME280;10104;50.732;10.174;2023-03-21T06:36:54;97902.25;;;12.36;64.73
19884;BME280;10104;50.732;10.174;2023-03-21T06:39:16;97901.88;;;12.46;64.44
19884;BME280;10104;50.732;10.174;2023-03-21T06:41:38;97898.84;;;12.55;64.14
19884;BME280;10104;50.732;10.174;2023-03-21T06:43:59;97898.00;;;12.55;64.61
19884;BME280;10104;50.732;10.174;2023-03-21T06:46:21;97903.94;;;12.50;63.47
19884;BME280;10104;50.732;10.174;2023-03-21T06:48:42;97900.84;;;12.53;63.40
19884;BME280;10104;50.732;10.174;2023-03-21T06:51:05;97912.38;;;12.74;63.51
19884;BME280;10104;50.732;10.174;2023-03-21T06:53:26;97903.16;;;12.63;63.81
19884;BME280;10104;50.732;10.174;2023-03-21T06:55:52;97904.53;;;12.46;64.92
19884;BME280;10104;50.732;10.174;2023-03-21T06:58:13;97911.84;;;12.37;65.88
19884;BME280;10104;50.732;10.174;2023-03-21T07:00:35;97914.56;;;12.50;65.56
19884;BME280;10104;50.732;10.174;2023-03-21T07:02:56;97910.09;;;12.64;65.07
19884;BME280;10104;50.732;10.174;2023-03-21T07:05:18;97911.69;;;12.45;66.07
19884;BME280;10104;50.732;10.174;2023-03-21T07:07:40;97910.88;;;12.51;66.32
19884;BME280;10104;50.732;10.174;2023-03-21T07:10:02;97913.13;;;12.54;66.96
19884;BME280;10104;50.732;10.174;2023-03-21T07:12:24;97919.94;;;12.90;65.44
19884;BME280;10104;50.732;10.174;2023-03-21T07:14:46;97922.41;;;12.91;65.82
19884;BME280;10104;50.732;10.174;2023-03-21T07:17:07;97916.97;;;13.13;65.24
19884;BME280;10104;50.732;10.174;2023-03-21T07:19:28;97918.38;;;13.15;64.73
19884;BME280;10104;50.732;10.174;2023-03-21T07:21:51;97921.66;;;13.24;65.06
19884;BME280;10104;50.732;10.174;2023-03-21T07:24:13;97916.13;;;13.65;63.04
19884;BME280;10104;50.732;10.174;2023-03-21T07:26:34;97917.34;;;13.75;61.91
19884;BME280;10104;50.732;10.174;2023-03-21T07:28:56;97917.75;;;13.79;61.49
19884;BME280;10104;50.732;10.174;2023-03-21T07:31:18;97911.75;;;14.03;59.88
19884;BME280;10104;50.732;10.174;2023-03-21T07:33:40;97912.94;;;14.14;59.76
19884;BME280;10104;50.732;10.174;2023-03-21T07:36:02;97919.59;;;13.65;58.17
19884;BME280;10104;50.732;10.174;2023-03-21T07:38:23;97921.47;;;13.45;59.93
19884;BME280;10104;50.732;10.174;2023-03-21T07:40:47;97919.00;;;13.44;59.76
19884;BME280;10104;50.732;10.174;2023-03-21T07:43:08;97914.31;;;13.39;59.66
19884;BME280;10104;50.732;10.174;2023-03-21T07:45:30;97911.22;;;13.75;59.95
19884;BME280;10104;50.732;10.174;2023-03-21T07:47:52;97914.03;;;13.93;58.43
19884;BME280;10104;50.732;10.174;2023-03-21T07:50:14;97912.78;;;13.89;58.01
19884;BME280;10104;50.732;10.174;2023-03-21T07:52:36;97899.59;;;14.21;57.48
19884;BME280;10104;50.732;10.174;2023-03-21T07:54:57;97899.44;;;14.09;57.29
19884;BME280;10104;50.732;10.174;2023-03-21T07:57:19;97901.47;;;14.13;57.72
19884;BME280;10104;50.732;10.174;2023-03-21T07:59:40;97896.03;;;14.46;57.73
19884;BME280;10104;50.732;10.174;2023-03-21T08:02:02;97892.03;;;14.69;57.25
19884;BME280;10104;50.732;10.174;2023-03-21T08:04:23;97891.66;;;14.58;56.96
19884;BME280;10104;50.732;10.174;2023-03-21T08:06:46;97899.94;;;14.82;57.11
19884;BME280;10104;50.732;10.174;2023-03-21T08:09:08;97892.38;;;14.79;56.59
19884;BME280;10104;50.732;10.174;2023-03-21T08:11:29;97887.69;;;14.74;57.16
19884;BME280;10104;50.732;10.174;2023-03-21T08:13:53;97890.16;;;14.69;57.00
19884;BME280;10104;50.732;10.174;2023-03-21T08:16:17;97890.56;;;14.22;56.89
19884;BME280;10104;50.732;10.174;2023-03-21T08:18:38;97890.75;;;14.27;57.77
19884;BME280;10104;50.732;10.174;2023-03-21T08:21:00;97884.88;;;14.18;58.43
19884;BME280;10104;50.732;10.174;2023-03-21T08:23:22;97893.88;;;14.17;58.98
19884;BME280;10104;50.732;10.174;2023-03-21T08:25:44;97888.63;;;13.91;59.85
19884;BME280;10104;50.732;10.174;2023-03-21T08:28:07;97890.06;;;14.00;60.52
19884;BME280;10104;50.732;10.174;2023-03-21T08:30:28;97888.00;;;13.95;61.22
19884;BME280;10104;50.732;10.174;2023-03-21T08:32:50;97879.16;;;14.08;61.31
19884;BME280;10104;50.732;10.174;2023-03-21T08:35:14;97883.03;;;14.18;60.87
19884;BME280;10104;50.732;10.174;2023-03-21T08:37:37;97873.97;;;14.19;61.22
19884;BME280;10104;50.732;10.174;2023-03-21T08:39:59;97875.47;;;14.09;61.45
19884;BME280;10104;50.732;10.174;2023-03-21T08:42:21;97875.41;;;14.22;61.28
19884;BME280;10104;50.732;10.174;2023-03-21T08:44:43;97873.16;;;14.26;60.64
19884;BME280;10104;50.732;10.174;2023-03-21T08:47:04;97869.72;;;14.56;60.12
19884;BME280;10104;50.732;10.174;2023-03-21T08:49:26;97874.47;;;14.54;59.29
19884;BME280;10104;50.732;10.174;2023-03-21T08:51:48;97878.84;;;14.36;59.32
19884;BME280;10104;50.732;10.174;2023-03-21T08:54:20;97881.06;;;14.45;59.80
19884;BME280;10104;50.732;10.174;2023-03-21T08:56:41;97883.22;;;14.17;58.30
19884;BME280;10104;50.732;10.174;2023-03-21T08:59:03;97886.50;;;14.19;59.42
19884;BME280;10104;50.732;10.174;2023-03-21T09:01:24;97877.66;;;14.32;59.95
19884;BME280;10104;50.732;10.174;2023-03-21T09:03:46;97882.25;;;14.56;59.57
19884;BME280;10104;50.732;10.174;2023-03-21T09:06:09;97889.94;;;14.26;60.42
19884;BME280;10104;50.732;10.174;2023-03-21T09:08:32;97883.34;;;14.35;60.07
19884;BME280;10104;50.732;10.174;2023-03-21T09:10:54;97888.72;;;14.29;60.17
19884;BME280;10104;50.732;10.174;2023-03-21T09:13:16;97878.84;;;14.36;58.78
19884;BME280;10104;50.732;10.174;2023-03-21T09:15:37;97876.81;;;14.38;59.91
19884;BME280;10104;50.732;10.174;2023-03-21T09:18:00;97878.03;;;14.42;61.22
19884;BME280;10104;50.732;10.174;2023-03-21T09:20:33;97878.91;;;14.67;59.82
19884;BME280;10104;50.732;10.174;2023-03-21T09:22:58;97870.69;;;15.00;58.84
19884;BME280;10104;50.732;10.174;2023-03-21T09:25:22;97870.47;;;15.26;58.05
19884;BME280;10104;50.732;10.174;2023-03-21T09:27:45;97877.41;;;15.34;57.32
19884;BME280;10104;50.732;10.174;2023-03-21T09:30:07;97880.03;;;15.84;56.27
19884;BME280;10104;50.732;10.174;2023-03-21T09:32:31;97872.06;;;16.32;56.35
19884;BME280;10104;50.732;10.174;2023-03-21T09:34:54;97866.56;;;16.45;53.89
19884;BME280;10104;50.732;10.174;2023-03-21T09:37:17;97871.69;;;16.46;53.30
19884;BME280;10104;50.732;10.174;2023-03-21T09:39:39;97864.69;;;16.64;52.78
19884;BME280;10104;50.732;10.174;2023-03-21T09:42:15;97860.84;;;17.01;53.25
19884;BME280;10104;50.732;10.174;2023-03-21T09:44:57;97867.03;;;17.60;52.33
19884;BME280;10104;50.732;10.174;2023-03-21T09:47:27;97853.66;;;17.13;51.84
19884;BME280;10104;50.732;10.174;2023-03-21T09:52:43;97845.22;;;16.98;52.46
19884;BME280;10104;50.732;10.174;2023-03-21T09:55:17;97848.63;;;17.05;52.03
19884;BME280;10104;50.732;10.174;2023-03-21T09:57:41;97845.63;;;17.25;50.43
19884;BME280;10104;50.732;10.174;2023-03-21T10:00:06;97844.81;;;17.24;53.24
19884;BME280;10104;50.732;10.174;2023-03-21T10:02:47;97841.91;;;17.37;53.02
19884;BME280;10104;50.732;10.174;2023-03-21T10:05:32;97845.50;;;17.08;51.33
19884;BME280;10104;50.732;10.174;2023-03-21T10:08:22;97839.91;;;17.10;52.40
19884;BME280;10104;50.732;10.174;2023-03-21T10:10:50;97843.47;;;16.92;51.73
19884;BME280;10104;50.732;10.174;2023-03-21T10:13:24;97836.13;;;16.76;51.78
19884;BME280;10104;50.732;10.174;2023-03-21T10:15:47;97839.00;;;16.74;52.04
19884;BME280;10104;50.732;10.174;2023-03-21T10:18:13;97830.38;;;17.02;50.46
19884;BME280;10104;50.732;10.174;2023-03-21T10:20:41;97834.63;;;16.91;50.46
19884;BME280;10104;50.732;10.174;2023-03-21T10:23:05;97833.69;;;16.86;52.31
19884;BME280;10104;50.732;10.174;2023-03-21T10:27:52;97834.69;;;16.62;52.45
19884;BME280;10104;50.732;10.174;2023-03-21T10:30:23;97835.91;;;16.77;52.79
19884;BME280;10104;50.732;10.174;2023-03-21T10:32:46;97823.91;;;16.80;52.74
19884;BME280;10104;50.732;10.174;2023-03-21T10:35:08;97825.00;;;16.90;53.38
19884;BME280;10104;50.732;10.174;2023-03-21T10:37:33;97813.22;;;16.80;51.99
19884;BME280;10104;50.732;10.174;2023-03-21T10:39:56;97808.13;;;16.78;51.88
19884;BME280;10104;50.732;10.174;2023-03-21T10:44:47;97821.72;;;16.77;51.82
19884;BME280;10104;50.732;10.174;2023-03-21T10:47:09;97821.50;;;16.90;52.59
19884;BME280;10104;50.732;10.174;2023-03-21T10:49:32;97817.81;;;17.49;51.27
19884;BME280;10104;50.732;10.174;2023-03-21T10:52:12;97822.94;;;17.27;51.64
19884;BME280;10104;50.732;10.174;2023-03-21T10:54:34;97815.25;;;17.19;52.61
19884;BME280;10104;50.732;10.174;2023-03-21T10:59:35;97825.38;;;17.29;52.56
19884;BME280;10104;50.732;10.174;2023-03-21T11:01:57;97817.09;;;16.95;52.06
19884;BME280;10104;50.732;10.174;2023-03-21T11:04:22;97814.88;;;16.92;54.35
19884;BME280;10104;50.732;10.174;2023-03-21T11:06:51;97816.28;;;16.95;55.37
19884;BME280;10104;50.732;10.174;2023-03-21T11:09:15;97827.00;;;17.07;55.38
19884;BME280;10104;50.732;10.174;2023-03-21T11:14:03;97824.41;;;17.00;53.86
19884;BME280;10104;50.732;10.174;2023-03-21T11:16:42;97830.38;;;17.14;54.24
19884;BME280;10104;50.732;10.174;2023-03-21T11:19:16;97817.44;;;16.99;52.37
19884;BME280;10104;50.732;10.174;2023-03-21T11:21:38;97826.88;;;17.25;53.62
19884;BME280;10104;50.732;10.174;2023-03-21T11:23:59;97822.56;;;17.12;52.91
19884;BME280;10104;50.732;10.174;2023-03-21T11:26:32;97827.81;;;17.30;54.51
19884;BME280;10104;50.732;10.174;2023-03-21T11:28:57;97814.00;;;17.22;50.93
19884;BME280;10104;50.732;10.174;2023-03-21T11:31:19;97814.81;;;17.34;51.00
19884;BME280;10104;50.732;10.174;2023-03-21T11:33:55;97814.31;;;17.37;53.38
19884;BME280;10104;50.732;10.174;2023-03-21T11:38:38;97805.25;;;17.50;54.30
19884;BME280;10104;50.732;10.174;2023-03-21T11:41:01;97800.34;;;17.58;52.80
19884;BME280;10104;50.732;10.174;2023-03-21T11:43:30;97812.91;;;17.34;53.81
19884;BME280;10104;50.732;10.174;2023-03-21T11:46:04;97805.94;;;17.10;52.60
19884;BME280;10104;50.732;10.174;2023-03-21T11:48:27;97807.56;;;17.34;53.79
19884;BME280;10104;50.732;10.174;2023-03-21T11:50:51;97805.69;;;17.12;52.10
19884;BME280;10104;50.732;10.174;2023-03-21T11:53:36;97800.34;;;17.23;53.02
19884;BME280;10104;50.732;10.174;2023-03-21T12:01:39;97804.78;;;17.06;54.94
19884;BME280;10104;50.732;10.174;2023-03-21T12:06:50;97793.00;;;16.72;55.86
19884;BME280;10104;50.732;10.174;2023-03-21T12:09:31;97783.13;;;16.54;55.49
19884;BME280;10104;50.732;10.174;2023-03-21T12:12:39;97788.81;;;16.46;54.71
19884;BME280;10104;50.732;10.174;2023-03-21T12:28:18;97765.69;;;16.52;56.36
19884;BME280;10104;50.732;10.174;2023-03-21T12:31:15;97769.47;;;16.63;55.54
19884;BME280;10104;50.732;10.174;2023-03-21T12:36:47;97758.00;;;16.44;57.14
19884;BME280;10104;50.732;10.174;2023-03-21T12:39:30;97774.78;;;16.21;56.24
19884;BME280;10104;50.732;10.174;2023-03-21T12:44:38;97761.44;;;15.55;58.62
19884;BME280;10104;50.732;10.174;2023-03-21T12:47:09;97758.53;;;15.56;60.18
19884;BME280;10104;50.732;10.174;2023-03-21T12:49:40;97768.03;;;15.52;59.44
19884;BME280;10104;50.732;10.174;2023-03-21T12:52:12;97766.25;;;15.64;58.27
19884;BME280;10104;50.732;10.174;2023-03-21T12:54:40;97768.53;;;15.43;58.36
19884;BME280;10104;50.732;10.174;2023-03-21T12:57:10;97762.69;;;15.52;60.47
19884;BME280;10104;50.732;10.174;2023-03-21T12:59:57;97764.84;;;15.19;60.34
19884;BME280;10104;50.732;10.174;2023-03-21T13:02:33;97765.81;;;15.06;60.73
19884;BME280;10104;50.732;10.174;2023-03-21T13:07:46;97772.22;;;14.80;60.45
19884;BME280;10104;50.732;10.174;2023-03-21T13:10:17;97768.94;;;14.78;61.05
19884;BME280;10104;50.732;10.174;2023-03-21T13:13:45;97754.78;;;14.78;61.33
19884;BME280;10104;50.732;10.174;2023-03-21T13:15:57;97750.16;;;14.91;61.33
19884;BME280;10104;50.732;10.174;2023-03-21T13:18:51;97754.56;;;14.79;58.56
19884;BME280;10104;50.732;10.174;2023-03-21T13:21:21;97751.69;;;14.56;58.23
19884;BME280;10104;50.732;10.174;2023-03-21T13:26:31;97739.34;;;14.86;60.89
19884;BME280;10104;50.732;10.174;2023-03-21T13:28:53;97737.25;;;14.88;57.83
19884;BME280;10104;50.732;10.174;2023-03-21T13:31:24;97743.06;;;15.04;59.03
19884;BME280;10104;50.732;10.174;2023-03-21T13:33:52;97737.34;;;15.00;57.73
19884;BME280;10104;50.732;10.174;2023-03-21T13:36:21;97734.34;;;15.15;57.20
19884;BME280;10104;50.732;10.174;2023-03-21T13:38:49;97725.38;;;15.27;58.06
19884;BME280;10104;50.732;10.174;2023-03-21T13:41:29;97732.78;;;15.25;57.67
19884;BME280;10104;50.732;10.174;2023-03-21T13:56:51;97726.28;;;15.21;60.77
19884;BME280;10104;50.732;10.174;2023-03-21T14:02:29;97725.53;;;15.32;60.87
19884;BME280;10104;50.732;10.174;2023-03-21T14:04:57;97719.63;;;15.30;62.25
19884;BME280;10104;50.732;10.174;2023-03-21T14:07:30;97715.59;;;15.21;63.44
19884;BME280;10104;50.732;10.174;2023-03-21T14:09:54;97717.91;;;15.00;62.05
19884;BME280;10104;50.732;10.174;2023-03-21T14:12:22;97712.72;;;15.05;65.09
19884;BME280;10104;50.732;10.174;2023-03-21T14:15:17;97712.09;;;15.03;64.51
19884;BME280;10104;50.732;10.174;2023-03-21T14:17:49;97711.09;;;14.79;67.31
19884;BME280;10104;50.732;10.174;2023-03-21T14:20:19;97714.34;;;14.31;67.76